Sy Clevelander — 2CWE8 — position and weather

sailwx.info

Track history (hours):
 
Tides and Currents Weather Stations Pressure Air Temp Water Temp Dewpoint Dewpoint Depression Visibility Wind Speed Wind Dir Waves Ship Positions

Sy Clevelander

Last reported at 2014-Dec-29 20:34 UTC. Time now 2015-Jan-29 06:27 UTC.
Position N 18°23' W 064°42'.
Warning: this ship's position is 30 days out of date.

Length 25 m.

Type: Sailing vessel. MMSI: 235076308.

Date/timePositionNaut miles runAvg speedWind from/ knotsBaromVisibWave heightAir tempDewpointWater temp
2014-Dec-29 20:34N 18°23' W 064°42'1 0.8
2014-Dec-29 19:28N 18°23' W 064°43'0 0.0
2014-Dec-29 18:28N 18°23' W 064°43'0 0.0
2014-Dec-29 17:28N 18°23' W 064°43'0 0.0
2014-Dec-29 16:28N 18°23' W 064°43'0 0.0
2014-Dec-29 15:28N 18°23' W 064°43'0 0.0
2014-Dec-29 14:28N 18°23' W 064°43'0 0.0
2014-Dec-29 13:28N 18°23' W 064°43'0 0.0
2014-Dec-29 12:28N 18°23' W 064°43'0 0.0
2014-Dec-29 11:28N 18°23' W 064°43'0 0.0
2014-Dec-29 10:28N 18°23' W 064°43'0 0.0
2014-Dec-29 09:28N 18°23' W 064°43'0 0.0
2014-Dec-29 08:22N 18°23' W 064°43'0 0.0
2014-Dec-29 07:22N 18°23' W 064°43'0 0.0
2014-Dec-29 06:28N 18°23' W 064°43'0 0.0
2014-Dec-29 05:22N 18°23' W 064°43'0 0.0
2014-Dec-29 04:28N 18°23' W 064°43'0 0.0
2014-Dec-29 03:04N 18°23' W 064°43'0 0.0
2014-Dec-29 02:16N 18°23' W 064°43'0 0.0
2014-Dec-29 01:28N 18°23' W 064°43'0 0.0
2014-Dec-29 00:28N 18°23' W 064°43'0 0.0
2014-Dec-28 15:29N 18°23' W 064°43'0 0.0
2014-Dec-28 05:18N 18°23' W 064°43'0 0.0
2014-Dec-28 03:24N 18°23' W 064°43'0 0.0
2014-Dec-28 02:24N 18°23' W 064°43'0 0.0
2014-Dec-28 00:24N 18°23' W 064°43'0 0.0
2014-Dec-27 23:30N 18°23' W 064°43'0 0.0
2014-Dec-27 22:24N 18°23' W 064°43'0 0.0
2014-Dec-27 21:30N 18°23' W 064°43'0 0.0
2014-Dec-27 20:30N 18°23' W 064°43'0 0.0
2014-Dec-27 19:30N 18°23' W 064°43'0 0.0
2014-Dec-27 18:24N 18°23' W 064°43'0 0.0
2014-Dec-27 17:24N 18°23' W 064°43'0 0.0
2014-Dec-27 16:30N 18°23' W 064°43'0 0.0
2014-Dec-27 15:30N 18°23' W 064°43'0 0.0
2014-Dec-27 14:30N 18°23' W 064°43'0 0.0
2014-Dec-27 13:30N 18°23' W 064°43'0 0.0
2014-Dec-27 12:30N 18°23' W 064°43'0 0.0
2014-Dec-27 11:30N 18°23' W 064°43'0 0.0
2014-Dec-27 09:30N 18°23' W 064°43'0 0.0
2014-Dec-27 08:24N 18°23' W 064°43'0 0.0
2014-Dec-27 07:30N 18°23' W 064°43'0 0.0
2014-Dec-27 06:21N 18°23' W 064°43'0 0.0
2014-Dec-27 05:06N 18°23' W 064°43'0 0.0
2014-Dec-27 03:30N 18°23' W 064°43'0 0.0
2014-Dec-27 02:30N 18°23' W 064°43'0 0.0
2014-Dec-27 01:30N 18°23' W 064°43'0 0.0
2014-Dec-27 00:18N 18°23' W 064°43'0 0.0
2014-Dec-26 23:24N 18°23' W 064°43'0 0.0
2014-Dec-26 22:30N 18°23' W 064°43'0 0.0
2014-Dec-26 21:33N 18°23' W 064°43'3 2.5
2014-Dec-26 20:30N 18°22' W 064°45'0 0.0
2014-Dec-26 19:24N 18°22' W 064°45'0 0.0
2014-Dec-26 18:24N 18°22' W 064°45'0 0.0
2014-Dec-26 17:30N 18°22' W 064°45'0 0.0
2014-Dec-26 16:30N 18°22' W 064°45'0 0.0
2014-Dec-26 15:33N 18°22' W 064°45'  
2014-Dec-22 13:33N 18°26' W 064°46'0 0.1
2014-Dec-22 12:31N 18°26' W 064°46'0 0.0
2014-Dec-22 11:31N 18°26' W 064°46'0 0.0
2014-Dec-22 10:31N 18°26' W 064°46'0 0.0
2014-Dec-22 09:25N 18°26' W 064°46'0 0.0
2014-Dec-22 08:31N 18°26' W 064°46'0 0.0
2014-Dec-22 07:31N 18°26' W 064°46'0 0.0
2014-Dec-22 06:31N 18°26' W 064°46'0 0.0
2014-Dec-22 05:31N 18°26' W 064°46'0 0.0
2014-Dec-22 04:31N 18°26' W 064°46'0 0.0
2014-Dec-22 03:31N 18°26' W 064°46'0 0.0
2014-Dec-22 02:19N 18°26' W 064°46'0 0.0
2014-Dec-22 01:25N 18°26' W 064°46'0 0.0
2014-Dec-22 00:31N 18°26' W 064°46'0 0.0
2014-Dec-21 22:31N 18°26' W 064°46'0 0.0
2014-Dec-21 21:31N 18°26' W 064°46'0 0.0
2014-Dec-21 20:19N 18°26' W 064°46'0 0.0
2014-Dec-21 19:31N 18°26' W 064°46'0 0.0
2014-Dec-21 18:25N 18°26' W 064°46'0 0.0
2014-Dec-21 17:31N 18°26' W 064°46'1 1.1
2014-Dec-21 16:33N 18°26' W 064°45'5 0.2
2014-Dec-20 20:33N 18°22' W 064°42'1 1.0
2014-Dec-20 19:27N 18°23' W 064°43'0 0.0
2014-Dec-20 18:27N 18°23' W 064°43'0 0.0
2014-Dec-20 17:33N 18°23' W 064°43'0 0.0
2014-Dec-20 16:33N 18°23' W 064°43'0 0.0
2014-Dec-20 15:33N 18°23' W 064°43'0 0.0
2014-Dec-20 14:33N 18°23' W 064°43'0 0.0
2014-Dec-20 13:21N 18°23' W 064°43'0 0.1
2014-Dec-20 12:33N 18°23' W 064°43'0 0.0
2014-Dec-20 11:33N 18°23' W 064°43'0 0.0
2014-Dec-20 10:30N 18°23' W 064°43'0 0.0
2014-Dec-20 09:30N 18°23' W 064°43'0 0.0
2014-Dec-20 08:33N 18°23' W 064°43'0 0.0
2014-Dec-20 07:30N 18°23' W 064°43'0 0.0
2014-Dec-20 06:12N 18°23' W 064°43'0 0.0
2014-Dec-20 05:27N 18°23' W 064°43'0 0.0
2014-Dec-20 04:24N 18°23' W 064°43'0 0.0
2014-Dec-20 03:21N 18°23' W 064°43'0 0.0
2014-Dec-20 02:33N 18°23' W 064°43'0 0.0
2014-Dec-20 00:21N 18°23' W 064°43'0 0.0
2014-Dec-19 23:33N 18°23' W 064°43'0 0.0
2014-Dec-19 22:24N 18°23' W 064°43'0 0.0
2014-Dec-19 21:33N 18°23' W 064°43'  
Track history (hours):
 
Tides and Currents Weather Stations Pressure Air Temp Water Temp Dewpoint Dewpoint Depression Visibility Wind Speed Wind Dir Waves Ship Positions

Sy Clevelander

Last reported at 2014-Dec-29 20:34 UTC. Time now 2015-Jan-29 06:27 UTC.
Position N 18°23' W 064°42'.
Warning: this ship's position is 30 days out of date.

Length 25 m.

Type: Sailing vessel. MMSI: 235076308.

Date/timePositionNaut miles runAvg speedWind from/ knotsBaromVisibWave heightAir tempDewpointWater temp
2014-Dec-29 20:34N 18°23' W 064°42'1 0.8
2014-Dec-29 19:28N 18°23' W 064°43'0 0.0
2014-Dec-29 18:28N 18°23' W 064°43'0 0.0
2014-Dec-29 17:28N 18°23' W 064°43'0 0.0
2014-Dec-29 16:28N 18°23' W 064°43'0 0.0
2014-Dec-29 15:28N 18°23' W 064°43'0 0.0
2014-Dec-29 14:28N 18°23' W 064°43'0 0.0
2014-Dec-29 13:28N 18°23' W 064°43'0 0.0
2014-Dec-29 12:28N 18°23' W 064°43'0 0.0
2014-Dec-29 11:28N 18°23' W 064°43'0 0.0
2014-Dec-29 10:28N 18°23' W 064°43'0 0.0
2014-Dec-29 09:28N 18°23' W 064°43'0 0.0
2014-Dec-29 08:22N 18°23' W 064°43'0 0.0
2014-Dec-29 07:22N 18°23' W 064°43'0 0.0
2014-Dec-29 06:28N 18°23' W 064°43'0 0.0
2014-Dec-29 05:22N 18°23' W 064°43'0 0.0
2014-Dec-29 04:28N 18°23' W 064°43'0 0.0
2014-Dec-29 03:04N 18°23' W 064°43'0 0.0
2014-Dec-29 02:16N 18°23' W 064°43'0 0.0
2014-Dec-29 01:28N 18°23' W 064°43'0 0.0
2014-Dec-29 00:28N 18°23' W 064°43'0 0.0
2014-Dec-28 15:29N 18°23' W 064°43'0 0.0
2014-Dec-28 05:18N 18°23' W 064°43'0 0.0
2014-Dec-28 03:24N 18°23' W 064°43'0 0.0
2014-Dec-28 02:24N 18°23' W 064°43'0 0.0
2014-Dec-28 00:24N 18°23' W 064°43'0 0.0
2014-Dec-27 23:30N 18°23' W 064°43'0 0.0
2014-Dec-27 22:24N 18°23' W 064°43'0 0.0
2014-Dec-27 21:30N 18°23' W 064°43'0 0.0
2014-Dec-27 20:30N 18°23' W 064°43'0 0.0
2014-Dec-27 19:30N 18°23' W 064°43'0 0.0
2014-Dec-27 18:24N 18°23' W 064°43'0 0.0
2014-Dec-27 17:24N 18°23' W 064°43'0 0.0
2014-Dec-27 16:30N 18°23' W 064°43'0 0.0
2014-Dec-27 15:30N 18°23' W 064°43'0 0.0
2014-Dec-27 14:30N 18°23' W 064°43'0 0.0
2014-Dec-27 13:30N 18°23' W 064°43'0 0.0
2014-Dec-27 12:30N 18°23' W 064°43'0 0.0
2014-Dec-27 11:30N 18°23' W 064°43'0 0.0
2014-Dec-27 09:30N 18°23' W 064°43'0 0.0
2014-Dec-27 08:24N 18°23' W 064°43'0 0.0
2014-Dec-27 07:30N 18°23' W 064°43'0 0.0
2014-Dec-27 06:21N 18°23' W 064°43'0 0.0
2014-Dec-27 05:06N 18°23' W 064°43'0 0.0
2014-Dec-27 03:30N 18°23' W 064°43'0 0.0
2014-Dec-27 02:30N 18°23' W 064°43'0 0.0
2014-Dec-27 01:30N 18°23' W 064°43'0 0.0
2014-Dec-27 00:18N 18°23' W 064°43'0 0.0
2014-Dec-26 23:24N 18°23' W 064°43'0 0.0
2014-Dec-26 22:30N 18°23' W 064°43'0 0.0
2014-Dec-26 21:33N 18°23' W 064°43'3 2.5
2014-Dec-26 20:30N 18°22' W 064°45'0 0.0
2014-Dec-26 19:24N 18°22' W 064°45'0 0.0
2014-Dec-26 18:24N 18°22' W 064°45'0 0.0
2014-Dec-26 17:30N 18°22' W 064°45'0 0.0
2014-Dec-26 16:30N 18°22' W 064°45'0 0.0
2014-Dec-26 15:33N 18°22' W 064°45'  
2014-Dec-22 13:33N 18°26' W 064°46'0 0.1
2014-Dec-22 12:31N 18°26' W 064°46'0 0.0
2014-Dec-22 11:31N 18°26' W 064°46'0 0.0
2014-Dec-22 10:31N 18°26' W 064°46'0 0.0
2014-Dec-22 09:25N 18°26' W 064°46'0 0.0
2014-Dec-22 08:31N 18°26' W 064°46'0 0.0
2014-Dec-22 07:31N 18°26' W 064°46'0 0.0
2014-Dec-22 06:31N 18°26' W 064°46'0 0.0
2014-Dec-22 05:31N 18°26' W 064°46'0 0.0
2014-Dec-22 04:31N 18°26' W 064°46'0 0.0
2014-Dec-22 03:31N 18°26' W 064°46'0 0.0
2014-Dec-22 02:19N 18°26' W 064°46'0 0.0
2014-Dec-22 01:25N 18°26' W 064°46'0 0.0
2014-Dec-22 00:31N 18°26' W 064°46'0 0.0
2014-Dec-21 22:31N 18°26' W 064°46'0 0.0
2014-Dec-21 21:31N 18°26' W 064°46'0 0.0
2014-Dec-21 20:19N 18°26' W 064°46'0 0.0
2014-Dec-21 19:31N 18°26' W 064°46'0 0.0
2014-Dec-21 18:25N 18°26' W 064°46'0 0.0
2014-Dec-21 17:31N 18°26' W 064°46'1 1.1
2014-Dec-21 16:33N 18°26' W 064°45'5 0.2
2014-Dec-20 20:33N 18°22' W 064°42'1 1.0
2014-Dec-20 19:27N 18°23' W 064°43'0 0.0
2014-Dec-20 18:27N 18°23' W 064°43'0 0.0
2014-Dec-20 17:33N 18°23' W 064°43'0 0.0
2014-Dec-20 16:33N 18°23' W 064°43'0 0.0
2014-Dec-20 15:33N 18°23' W 064°43'0 0.0
2014-Dec-20 14:33N 18°23' W 064°43'0 0.0
2014-Dec-20 13:21N 18°23' W 064°43'0 0.1
2014-Dec-20 12:33N 18°23' W 064°43'0 0.0
2014-Dec-20 11:33N 18°23' W 064°43'0 0.0
2014-Dec-20 10:30N 18°23' W 064°43'0 0.0
2014-Dec-20 09:30N 18°23' W 064°43'0 0.0
2014-Dec-20 08:33N 18°23' W 064°43'0 0.0
2014-Dec-20 07:30N 18°23' W 064°43'0 0.0
2014-Dec-20 06:12N 18°23' W 064°43'0 0.0
2014-Dec-20 05:27N 18°23' W 064°43'0 0.0
2014-Dec-20 04:24N 18°23' W 064°43'0 0.0
2014-Dec-20 03:21N 18°23' W 064°43'0 0.0
2014-Dec-20 02:33N 18°23' W 064°43'0 0.0
2014-Dec-20 00:21N 18°23' W 064°43'0 0.0
2014-Dec-19 23:33N 18°23' W 064°43'0 0.0
2014-Dec-19 22:24N 18°23' W 064°43'0 0.0
2014-Dec-19 21:33N 18°23' W 064°43'  

Dump ship's entire track history